sensor_id;sensor_type;location;lat;lon;timestamp;pressure;altitude;pressure_sealevel;temperature;humidity
41684;BME280;27369;52.030;4.586;2023-01-28T00:01:47;-20807.34;;;-144.41;100.00
41684;BME280;27369;52.030;4.586;2023-01-28T00:04:12;-20807.34;;;-144.41;100.00
41684;BME280;27369;52.030;4.586;2023-01-28T00:06:38;-20807.34;;;-144.41;100.00
41684;BME280;27369;52.030;4.586;2023-01-28T00:09:04;-20807.34;;;-144.41;100.00
41684;BME280;27369;52.030;4.586;2023-01-28T00:11:30;-20807.34;;;-144.41;100.00
41684;BME280;27369;52.030;4.586;2023-01-28T00:13:55;-20807.34;;;-144.41;100.00
41684;BME280;27369;52.030;4.586;2023-01-28T00:16:21;-20807.34;;;-144.41;100.00
41684;BME280;27369;52.030;4.586;2023-01-28T00:18:47;-20807.34;;;-144.41;100.00
41684;BME280;27369;52.030;4.586;2023-01-28T00:21:14;-20807.34;;;-144.41;100.00
41684;BME280;27369;52.030;4.586;2023-01-28T00:23:41;-20807.34;;;-144.41;100.00
41684;BME280;27369;52.030;4.586;2023-01-28T00:26:11;-20807.34;;;-144.41;100.00
41684;BME280;27369;52.030;4.586;2023-01-28T00:28:38;-20807.34;;;-144.41;100.00
41684;BME280;27369;52.030;4.586;2023-01-28T00:31:15;-20807.34;;;-144.41;100.00
41684;BME280;27369;52.030;4.586;2023-01-28T00:33:42;-20807.34;;;-144.41;100.00
41684;BME280;27369;52.030;4.586;2023-01-28T00:36:08;-20807.34;;;-144.41;100.00
41684;BME280;27369;52.030;4.586;2023-01-28T00:38:34;-20807.34;;;-144.41;100.00
41684;BME280;27369;52.030;4.586;2023-01-28T00:41:26;-20807.34;;;-144.41;100.00
41684;BME280;27369;52.030;4.586;2023-01-28T00:43:52;-20807.34;;;-144.41;100.00
41684;BME280;27369;52.030;4.586;2023-01-28T00:46:19;-20807.34;;;-144.41;100.00
41684;BME280;27369;52.030;4.586;2023-01-28T00:48:45;-20807.34;;;-144.41;100.00
41684;BME280;27369;52.030;4.586;2023-01-28T00:51:13;-20807.34;;;-144.41;100.00
41684;BME280;27369;52.030;4.586;2023-01-28T00:53:39;-20807.34;;;-144.41;100.00
41684;BME280;27369;52.030;4.586;2023-01-28T00:56:06;-20807.34;;;-144.41;100.00
41684;BME280;27369;52.030;4.586;2023-01-28T00:58:32;-20807.34;;;-144.41;100.00
41684;BME280;27369;52.030;4.586;2023-01-28T01:01:08;-20807.34;;;-144.41;100.00
41684;BME280;27369;52.030;4.586;2023-01-28T01:03:34;-20807.34;;;-144.41;100.00
41684;BME280;27369;52.030;4.586;2023-01-28T01:06:00;-20807.34;;;-144.41;100.00
41684;BME280;27369;52.030;4.586;2023-01-28T01:08:25;-20807.34;;;-144.41;100.00
41684;BME280;27369;52.030;4.586;2023-01-28T01:11:02;-20807.34;;;-144.41;100.00
41684;BME280;27369;52.030;4.586;2023-01-28T01:13:30;-20807.34;;;-144.41;100.00
41684;BME280;27369;52.030;4.586;2023-01-28T01:18:28;-20807.34;;;-144.41;100.00
41684;BME280;27369;52.030;4.586;2023-01-28T01:20:53;-20807.34;;;-144.41;100.00
41684;BME280;27369;52.030;4.586;2023-01-28T01:23:25;-20807.34;;;-144.41;100.00
41684;BME280;27369;52.030;4.586;2023-01-28T01:25:50;-20807.34;;;-144.41;100.00
41684;BME280;27369;52.030;4.586;2023-01-28T01:28:16;-20807.34;;;-144.41;100.00
41684;BME280;27369;52.030;4.586;2023-01-28T01:30:42;-20807.34;;;-144.41;100.00
41684;BME280;27369;52.030;4.586;2023-01-28T01:33:07;-20807.34;;;-144.41;100.00
41684;BME280;27369;52.030;4.586;2023-01-28T01:35:33;-20807.34;;;-144.41;100.00
41684;BME280;27369;52.030;4.586;2023-01-28T01:37:58;-20807.34;;;-144.41;100.00
41684;BME280;27369;52.030;4.586;2023-01-28T01:40:24;-20807.34;;;-144.41;100.00
41684;BME280;27369;52.030;4.586;2023-01-28T01:42:49;-20807.34;;;-144.41;100.00
41684;BME280;27369;52.030;4.586;2023-01-28T01:45:15;-20807.34;;;-144.41;100.00
41684;BME280;27369;52.030;4.586;2023-01-28T01:47:51;-20807.34;;;-144.41;100.00
41684;BME280;27369;52.030;4.586;2023-01-28T01:52:55;-20807.34;;;-144.41;100.00
41684;BME280;27369;52.030;4.586;2023-01-28T01:55:24;-20807.34;;;-144.41;100.00
41684;BME280;27369;52.030;4.586;2023-01-28T01:57:51;-20807.34;;;-144.41;100.00
41684;BME280;27369;52.030;4.586;2023-01-28T02:00:17;-20807.34;;;-144.41;100.00
41684;BME280;27369;52.030;4.586;2023-01-28T02:02:46;-20807.34;;;-144.41;100.00
41684;BME280;27369;52.030;4.586;2023-01-28T02:05:16;-20807.34;;;-144.41;100.00
41684;BME280;27369;52.030;4.586;2023-01-28T02:07:42;-20807.34;;;-144.41;100.00
41684;BME280;27369;52.030;4.586;2023-01-28T02:10:10;-20807.34;;;-144.41;100.00
41684;BME280;27369;52.030;4.586;2023-01-28T02:12:39;-20807.34;;;-144.41;100.00
41684;BME280;27369;52.030;4.586;2023-01-28T02:15:18;-20807.34;;;-144.41;100.00
41684;BME280;27369;52.030;4.586;2023-01-28T02:17:45;-20807.34;;;-144.41;100.00
41684;BME280;27369;52.030;4.586;2023-01-28T02:20:13;-20807.34;;;-144.41;100.00
41684;BME280;27369;52.030;4.586;2023-01-28T02:23:03;-20807.34;;;-144.41;100.00
41684;BME280;27369;52.030;4.586;2023-01-28T02:31:02;-20807.34;;;-144.41;100.00
41684;BME280;27369;52.030;4.586;2023-01-28T02:33:34;-20807.34;;;-144.41;100.00
41684;BME280;27369;52.030;4.586;2023-01-28T02:36:28;-20807.34;;;-144.41;100.00
41684;BME280;27369;52.030;4.586;2023-01-28T02:39:03;-20807.34;;;-144.41;100.00
41684;BME280;27369;52.030;4.586;2023-01-28T02:41:36;-20807.34;;;-144.41;100.00
41684;BME280;27369;52.030;4.586;2023-01-28T02:44:04;-20807.34;;;-144.41;100.00
41684;BME280;27369;52.030;4.586;2023-01-28T02:49:17;-20807.34;;;-144.41;100.00
41684;BME280;27369;52.030;4.586;2023-01-28T02:54:36;-20807.34;;;-144.41;100.00
41684;BME280;27369;52.030;4.586;2023-01-28T03:05:30;-20807.34;;;-144.41;100.00
41684;BME280;27369;52.030;4.586;2023-01-28T03:07:58;-20807.34;;;-144.41;100.00
41684;BME280;27369;52.030;4.586;2023-01-28T03:10:25;-20807.34;;;-144.41;100.00
41684;BME280;27369;52.030;4.586;2023-01-28T03:12:54;-20807.34;;;-144.41;100.00
41684;BME280;27369;52.030;4.586;2023-01-28T03:15:42;-20807.34;;;-144.41;100.00
41684;BME280;27369;52.030;4.586;2023-01-28T03:18:34;-20807.34;;;-144.41;100.00
41684;BME280;27369;52.030;4.586;2023-01-28T03:21:30;-20807.34;;;-144.41;100.00
41684;BME280;27369;52.030;4.586;2023-01-28T03:24:31;-20807.34;;;-144.41;100.00
41684;BME280;27369;52.030;4.586;2023-01-28T03:27:21;-20807.34;;;-144.41;100.00
41684;BME280;27369;52.030;4.586;2023-01-28T03:30:16;-20807.34;;;-144.41;100.00
41684;BME280;27369;52.030;4.586;2023-01-28T03:33:03;-20807.34;;;-144.41;100.00
41684;BME280;27369;52.030;4.586;2023-01-28T03:35:48;-20807.34;;;-144.41;100.00
41684;BME280;27369;52.030;4.586;2023-01-28T03:38:32;-20807.34;;;-144.41;100.00
41684;BME280;27369;52.030;4.586;2023-01-28T03:41:08;-20807.34;;;-144.41;100.00
41684;BME280;27369;52.030;4.586;2023-01-28T03:43:34;-20807.34;;;-144.41;100.00
41684;BME280;27369;52.030;4.586;2023-01-28T03:46:00;-20807.34;;;-144.41;100.00
41684;BME280;27369;52.030;4.586;2023-01-28T03:48:27;-20807.34;;;-144.41;100.00
41684;BME280;27369;52.030;4.586;2023-01-28T03:50:57;-20807.34;;;-144.41;100.00
41684;BME280;27369;52.030;4.586;2023-01-28T03:53:25;-20807.34;;;-144.41;100.00
41684;BME280;27369;52.030;4.586;2023-01-28T03:55:52;-20807.34;;;-144.41;100.00
41684;BME280;27369;52.030;4.586;2023-01-28T03:58:18;-20807.34;;;-144.41;100.00
41684;BME280;27369;52.030;4.586;2023-01-28T04:00:44;-20807.34;;;-144.41;100.00
41684;BME280;27369;52.030;4.586;2023-01-28T04:03:11;-20807.34;;;-144.41;100.00
41684;BME280;27369;52.030;4.586;2023-01-28T04:05:57;-20807.34;;;-144.41;100.00
41684;BME280;27369;52.030;4.586;2023-01-28T04:08:23;-20807.34;;;-144.41;100.00
41684;BME280;27369;52.030;4.586;2023-01-28T04:10:49;-20807.34;;;-144.41;100.00
41684;BME280;27369;52.030;4.586;2023-01-28T04:13:15;-20807.34;;;-144.41;100.00
41684;BME280;27369;52.030;4.586;2023-01-28T04:15:41;-20807.34;;;-144.41;100.00
41684;BME280;27369;52.030;4.586;2023-01-28T04:18:08;-20807.34;;;-144.41;100.00
41684;BME280;27369;52.030;4.586;2023-01-28T04:20:33;-20807.34;;;-144.41;100.00
41684;BME280;27369;52.030;4.586;2023-01-28T04:22:59;-20807.34;;;-144.41;100.00
41684;BME280;27369;52.030;4.586;2023-01-28T04:25:24;-20807.34;;;-144.41;100.00
41684;BME280;27369;52.030;4.586;2023-01-28T04:27:50;-20807.34;;;-144.41;100.00
41684;BME280;27369;52.030;4.586;2023-01-28T04:30:16;-20807.34;;;-144.41;100.00
41684;BME280;27369;52.030;4.586;2023-01-28T04:32:41;-20807.34;;;-144.41;100.00
41684;BME280;27369;52.030;4.586;2023-01-28T04:35:07;-20807.34;;;-144.41;100.00
41684;BME280;27369;52.030;4.586;2023-01-28T04:37:32;-20807.34;;;-144.41;100.00
41684;BME280;27369;52.030;4.586;2023-01-28T04:39:58;-20807.34;;;-144.41;100.00
41684;BME280;27369;52.030;4.586;2023-01-28T04:42:23;-20807.34;;;-144.41;100.00
41684;BME280;27369;52.030;4.586;2023-01-28T04:44:49;-20807.34;;;-144.41;100.00
41684;BME280;27369;52.030;4.586;2023-01-28T04:47:14;-20807.34;;;-144.41;100.00
41684;BME280;27369;52.030;4.586;2023-01-28T04:49:39;-20807.34;;;-144.41;100.00
41684;BME280;27369;52.030;4.586;2023-01-28T04:52:05;-20807.34;;;-144.41;100.00
41684;BME280;27369;52.030;4.586;2023-01-28T04:54:30;-20807.34;;;-144.41;100.00
41684;BME280;27369;52.030;4.586;2023-01-28T04:56:56;-20807.34;;;-144.41;100.00
41684;BME280;27369;52.030;4.586;2023-01-28T04:59:21;-20807.34;;;-144.41;100.00
41684;BME280;27369;52.030;4.586;2023-01-28T05:01:47;-20807.34;;;-144.41;100.00
41684;BME280;27369;52.030;4.586;2023-01-28T05:04:13;-20807.34;;;-144.41;100.00
41684;BME280;27369;52.030;4.586;2023-01-28T05:06:38;-20807.34;;;-144.41;100.00
41684;BME280;27369;52.030;4.586;2023-01-28T05:09:04;-20807.34;;;-144.41;100.00
41684;BME280;27369;52.030;4.586;2023-01-28T05:11:29;-20807.34;;;-144.41;100.00
41684;BME280;27369;52.030;4.586;2023-01-28T05:13:55;-20807.34;;;-144.41;100.00
41684;BME280;27369;52.030;4.586;2023-01-28T05:16:20;-20807.34;;;-144.41;100.00
41684;BME280;27369;52.030;4.586;2023-01-28T05:18:45;-20807.34;;;-144.41;100.00
41684;BME280;27369;52.030;4.586;2023-01-28T05:21:15;-20807.34;;;-144.41;100.00
41684;BME280;27369;52.030;4.586;2023-01-28T05:23:41;-20807.34;;;-144.41;100.00
41684;BME280;27369;52.030;4.586;2023-01-28T05:26:07;-20807.34;;;-144.41;100.00
41684;BME280;27369;52.030;4.586;2023-01-28T05:28:32;-20807.34;;;-144.41;100.00
41684;BME280;27369;52.030;4.586;2023-01-28T05:31:02;-20807.34;;;-144.41;100.00
41684;BME280;27369;52.030;4.586;2023-01-28T05:33:28;-20807.34;;;-144.41;100.00
41684;BME280;27369;52.030;4.586;2023-01-28T05:35:53;-20807.34;;;-144.41;100.00
41684;BME280;27369;52.030;4.586;2023-01-28T05:38:19;-20807.34;;;-144.41;100.00
41684;BME280;27369;52.030;4.586;2023-01-28T05:40:46;-20807.34;;;-144.41;100.00
41684;BME280;27369;52.030;4.586;2023-01-28T05:43:12;-20807.34;;;-144.41;100.00
41684;BME280;27369;52.030;4.586;2023-01-28T05:45:37;-20807.34;;;-144.41;100.00
41684;BME280;27369;52.030;4.586;2023-01-28T05:48:03;-20807.34;;;-144.41;100.00
41684;BME280;27369;52.030;4.586;2023-01-28T05:50:29;-20807.34;;;-144.41;100.00
41684;BME280;27369;52.030;4.586;2023-01-28T05:52:54;-20807.34;;;-144.41;100.00
41684;BME280;27369;52.030;4.586;2023-01-28T05:55:19;-20807.34;;;-144.41;100.00
41684;BME280;27369;52.030;4.586;2023-01-28T05:57:45;-20807.34;;;-144.41;100.00
41684;BME280;27369;52.030;4.586;2023-01-28T06:00:10;-20807.34;;;-144.41;100.00
41684;BME280;27369;52.030;4.586;2023-01-28T06:02:36;-20807.34;;;-144.41;100.00
41684;BME280;27369;52.030;4.586;2023-01-28T06:05:02;-20807.34;;;-144.41;100.00
41684;BME280;27369;52.030;4.586;2023-01-28T06:07:27;-20807.34;;;-144.41;100.00
41684;BME280;27369;52.030;4.586;2023-01-28T06:09:52;-20807.34;;;-144.41;100.00
41684;BME280;27369;52.030;4.586;2023-01-28T06:12:18;-20807.34;;;-144.41;100.00
41684;BME280;27369;52.030;4.586;2023-01-28T06:14:43;-20807.34;;;-144.41;100.00
41684;BME280;27369;52.030;4.586;2023-01-28T06:17:09;-20807.34;;;-144.41;100.00
41684;BME280;27369;52.030;4.586;2023-01-28T06:19:34;-20807.34;;;-144.41;100.00
41684;BME280;27369;52.030;4.586;2023-01-28T06:21:59;-20807.34;;;-144.41;100.00
41684;BME280;27369;52.030;4.586;2023-01-28T06:24:25;-20807.34;;;-144.41;100.00
41684;BME280;27369;52.030;4.586;2023-01-28T06:26:50;-20807.34;;;-144.41;100.00
41684;BME280;27369;52.030;4.586;2023-01-28T06:29:16;-20807.34;;;-144.41;100.00
41684;BME280;27369;52.030;4.586;2023-01-28T06:31:41;-20807.34;;;-144.41;100.00
41684;BME280;27369;52.030;4.586;2023-01-28T06:34:08;-20807.34;;;-144.41;100.00
41684;BME280;27369;52.030;4.586;2023-01-28T06:36:35;-20807.34;;;-144.41;100.00
41684;BME280;27369;52.030;4.586;2023-01-28T06:39:03;-20807.34;;;-144.41;100.00
41684;BME280;27369;52.030;4.586;2023-01-28T06:41:28;-20807.34;;;-144.41;100.00
41684;BME280;27369;52.030;4.586;2023-01-28T06:43:54;-20807.34;;;-144.41;100.00
41684;BME280;27369;52.030;4.586;2023-01-28T06:46:19;-20807.34;;;-144.41;100.00
41684;BME280;27369;52.030;4.586;2023-01-28T06:48:45;-20807.34;;;-144.41;100.00
41684;BME280;27369;52.030;4.586;2023-01-28T06:51:10;-20807.34;;;-144.41;100.00
41684;BME280;27369;52.030;4.586;2023-01-28T06:53:35;-20807.34;;;-144.41;100.00
41684;BME280;27369;52.030;4.586;2023-01-28T06:56:01;-20807.34;;;-144.41;100.00
41684;BME280;27369;52.030;4.586;2023-01-28T06:58:26;-20807.34;;;-144.41;100.00
41684;BME280;27369;52.030;4.586;2023-01-28T07:00:52;-20807.34;;;-144.41;100.00
41684;BME280;27369;52.030;4.586;2023-01-28T07:03:17;-20807.34;;;-144.41;100.00
41684;BME280;27369;52.030;4.586;2023-01-28T07:05:43;-20807.34;;;-144.41;100.00
41684;BME280;27369;52.030;4.586;2023-01-28T07:08:09;-20807.34;;;-144.41;100.00
41684;BME280;27369;52.030;4.586;2023-01-28T07:10:34;-20807.34;;;-144.41;100.00
41684;BME280;27369;52.030;4.586;2023-01-28T07:13:00;-20807.34;;;-144.41;100.00
41684;BME280;27369;52.030;4.586;2023-01-28T07:15:26;-20807.34;;;-144.41;100.00
41684;BME280;27369;52.030;4.586;2023-01-28T07:17:51;-20807.34;;;-144.41;100.00
41684;BME280;27369;52.030;4.586;2023-01-28T07:20:17;-20807.34;;;-144.41;100.00
41684;BME280;27369;52.030;4.586;2023-01-28T07:22:43;-20807.34;;;-144.41;100.00
41684;BME280;27369;52.030;4.586;2023-01-28T07:25:09;-20807.34;;;-144.41;100.00
41684;BME280;27369;52.030;4.586;2023-01-28T07:27:35;-20807.34;;;-144.41;100.00
41684;BME280;27369;52.030;4.586;2023-01-28T07:30:00;-20807.34;;;-144.41;100.00
41684;BME280;27369;52.030;4.586;2023-01-28T07:32:26;-20807.34;;;-144.41;100.00
41684;BME280;27369;52.030;4.586;2023-01-28T07:34:52;-20807.34;;;-144.41;100.00
41684;BME280;27369;52.030;4.586;2023-01-28T07:37:18;-20807.34;;;-144.41;100.00
41684;BME280;27369;52.030;4.586;2023-01-28T07:39:43;-20807.34;;;-144.41;100.00
41684;BME280;27369;52.030;4.586;2023-01-28T07:42:09;-20807.34;;;-144.41;100.00
41684;BME280;27369;52.030;4.586;2023-01-28T07:44:34;-20807.34;;;-144.41;100.00
41684;BME280;27369;52.030;4.586;2023-01-28T07:47:01;-20807.34;;;-144.41;100.00
41684;BME280;27369;52.030;4.586;2023-01-28T07:49:27;-20807.34;;;-144.41;100.00
41684;BME280;27369;52.030;4.586;2023-01-28T07:51:52;-20807.34;;;-144.41;100.00
41684;BME280;27369;52.030;4.586;2023-01-28T07:54:17;-20807.34;;;-144.41;100.00
41684;BME280;27369;52.030;4.586;2023-01-28T07:56:43;-20807.34;;;-144.41;100.00
41684;BME280;27369;52.030;4.586;2023-01-28T07:59:08;-20807.34;;;-144.41;100.00
41684;BME280;27369;52.030;4.586;2023-01-28T08:01:34;-20807.34;;;-144.41;100.00
41684;BME280;27369;52.030;4.586;2023-01-28T08:03:59;-20807.34;;;-144.41;100.00
41684;BME280;27369;52.030;4.586;2023-01-28T08:06:27;-20807.34;;;-144.41;100.00
41684;BME280;27369;52.030;4.586;2023-01-28T08:08:52;-20807.34;;;-144.41;100.00
41684;BME280;27369;52.030;4.586;2023-01-28T08:11:18;-20807.34;;;-144.41;100.00
41684;BME280;27369;52.030;4.586;2023-01-28T08:14:24;-20807.34;;;-144.41;100.00
41684;BME280;27369;52.030;4.586;2023-01-28T08:17:24;-20807.34;;;-144.41;100.00
41684;BME280;27369;52.030;4.586;2023-01-28T08:19:53;-20807.34;;;-144.41;100.00
41684;BME280;27369;52.030;4.586;2023-01-28T08:22:24;-20807.34;;;-144.41;100.00
41684;BME280;27369;52.030;4.586;2023-01-28T08:24:49;-20807.34;;;-144.41;100.00
41684;BME280;27369;52.030;4.586;2023-01-28T08:27:15;-20807.34;;;-144.41;100.00
41684;BME280;27369;52.030;4.586;2023-01-28T08:29:40;-20807.34;;;-144.41;100.00
41684;BME280;27369;52.030;4.586;2023-01-28T08:32:05;-20807.34;;;-144.41;100.00
41684;BME280;27369;52.030;4.586;2023-01-28T08:34:31;-20807.34;;;-144.41;100.00
41684;BME280;27369;52.030;4.586;2023-01-28T08:36:56;-20807.34;;;-144.41;100.00
41684;BME280;27369;52.030;4.586;2023-01-28T08:39:22;-20807.34;;;-144.41;100.00
41684;BME280;27369;52.030;4.586;2023-01-28T08:41:47;-20807.34;;;-144.41;100.00
41684;BME280;27369;52.030;4.586;2023-01-28T08:44:13;-20807.34;;;-144.41;100.00
41684;BME280;27369;52.030;4.586;2023-01-28T08:46:38;-20807.34;;;-144.41;100.00
41684;BME280;27369;52.030;4.586;2023-01-28T08:49:03;-20807.34;;;-144.41;100.00
41684;BME280;27369;52.030;4.586;2023-01-28T08:51:29;-20807.34;;;-144.41;100.00
41684;BME280;27369;52.030;4.586;2023-01-28T08:53:54;-20807.34;;;-144.41;100.00
41684;BME280;27369;52.030;4.586;2023-01-28T08:56:19;-20807.34;;;-144.41;100.00
41684;BME280;27369;52.030;4.586;2023-01-28T08:58:45;-20807.34;;;-144.41;100.00
41684;BME280;27369;52.030;4.586;2023-01-28T09:01:10;-20807.34;;;-144.41;100.00
41684;BME280;27369;52.030;4.586;2023-01-28T09:03:36;-20807.34;;;-144.41;100.00
41684;BME280;27369;52.030;4.586;2023-01-28T09:06:03;-20807.34;;;-144.41;100.00
41684;BME280;27369;52.030;4.586;2023-01-28T09:08:29;-20807.34;;;-144.41;100.00
41684;BME280;27369;52.030;4.586;2023-01-28T09:10:58;-20807.34;;;-144.41;100.00
41684;BME280;27369;52.030;4.586;2023-01-28T09:13:24;-20807.34;;;-144.41;100.00
41684;BME280;27369;52.030;4.586;2023-01-28T09:15:51;-20807.34;;;-144.41;100.00
41684;BME280;27369;52.030;4.586;2023-01-28T09:18:17;-20807.34;;;-144.41;100.00
41684;BME280;27369;52.030;4.586;2023-01-28T09:20:43;-20807.34;;;-144.41;100.00
41684;BME280;27369;52.030;4.586;2023-01-28T09:23:09;-20807.34;;;-144.41;100.00
41684;BME280;27369;52.030;4.586;2023-01-28T09:25:35;-20807.34;;;-144.41;100.00
41684;BME280;27369;52.030;4.586;2023-01-28T09:28:01;-20807.34;;;-144.41;100.00
41684;BME280;27369;52.030;4.586;2023-01-28T09:30:27;-20805.88;;;-144.41;100.00
41684;BME280;27369;52.030;4.586;2023-01-28T09:32:54;-20557.19;;;-144.41;100.00
41684;BME280;27369;52.030;4.586;2023-01-28T09:35:20;-20059.75;;;-144.41;100.00
41684;BME280;27369;52.030;4.586;2023-01-28T09:37:46;-19313.44;;;-144.41;100.00
41684;BME280;27369;52.030;4.586;2023-01-28T09:40:26;-17322.66;;;-144.41;100.00
41684;BME280;27369;52.030;4.586;2023-01-28T09:43:12;-15081.75;;;-144.41;100.00
41684;BME280;27369;52.030;4.586;2023-01-28T09:45:45;-12091.84;;;-144.41;100.00
41684;BME280;27369;52.030;4.586;2023-01-28T09:48:23;-9847.88;;;-144.41;100.00
41684;BME280;27369;52.030;4.586;2023-01-28T09:50:51;-8101.66;;;-144.41;100.00
41684;BME280;27369;52.030;4.586;2023-01-28T09:53:21;-7353.03;;;-144.41;100.00
41684;BME280;27369;52.030;4.586;2023-01-28T09:56:12;-6853.88;;;-144.41;100.00
41684;BME280;27369;52.030;4.586;2023-01-28T09:58:40;-6354.63;;;-144.41;100.00
41684;BME280;27369;52.030;4.586;2023-01-28T10:01:20;-6604.25;;;-144.41;100.00
41684;BME280;27369;52.030;4.586;2023-01-28T10:06:48;-5855.34;;;-144.41;100.00
41684;BME280;27369;52.030;4.586;2023-01-28T10:09:29;-5106.28;;;-144.41;100.00
41684;BME280;27369;52.030;4.586;2023-01-28T10:14:57;-4357.06;;;-144.41;100.00
41684;BME280;27369;52.030;4.586;2023-01-28T10:20:27;-3607.72;;;-144.41;100.00
41684;BME280;27369;52.030;4.586;2023-01-28T10:22:55;-1858.66;;;-144.41;100.00
41684;BME280;27369;52.030;4.586;2023-01-28T10:25:29;-1858.66;;;-144.41;100.00
41684;BME280;27369;52.030;4.586;2023-01-28T10:27:55;-1608.75;;;-144.41;100.00
41684;BME280;27369;52.030;4.586;2023-01-28T10:30:24;-1608.75;;;-144.41;100.00
41684;BME280;27369;52.030;4.586;2023-01-28T10:33:00;-1358.78;;;-144.41;100.00
41684;BME280;27369;52.030;4.586;2023-01-28T10:35:30;-358.84;;;-144.41;100.00
41684;BME280;27369;52.030;4.586;2023-01-28T10:38:01;141.22;;;-144.41;100.00
41684;BME280;27369;52.030;4.586;2023-01-28T10:40:30;1892.00;;;-144.41;100.00
41684;BME280;27369;52.030;4.586;2023-01-28T10:42:56;2392.34;;;-144.41;100.00
41684;BME280;27369;52.030;4.586;2023-01-28T10:45:31;3643.53;;;-144.41;100.00
41684;BME280;27369;52.030;4.586;2023-01-28T10:48:02;3643.53;;;-144.41;100.00
41684;BME280;27369;52.030;4.586;2023-01-28T10:50:31;5395.91;;;-144.41;100.00
41684;BME280;27369;52.030;4.586;2023-01-28T10:52:58;4644.78;;;-144.41;100.00
41684;BME280;27369;52.030;4.586;2023-01-28T10:55:48;4144.13;;;-144.41;100.00
41684;BME280;27369;52.030;4.586;2023-01-28T10:58:23;5646.28;;;-144.41;100.00
41684;BME280;27369;52.030;4.586;2023-01-28T11:00:54;6898.53;;;-144.41;100.00
41684;BME280;27369;52.030;4.586;2023-01-28T11:03:22;10156.28;;;-144.41;100.00
41684;BME280;27369;52.030;4.586;2023-01-28T11:05:53;9654.91;;;-144.41;100.00
41684;BME280;27369;52.030;4.586;2023-01-28T11:08:20;10908.44;;;-144.41;100.00
41684;BME280;27369;52.030;4.586;2023-01-28T11:10:47;11660.78;;;-144.41;100.00
41684;BME280;27369;52.030;4.586;2023-01-28T11:13:25;13918.63;;;-144.41;100.00
41684;BME280;27369;52.030;4.586;2023-01-28T11:16:04;14671.53;;;-144.41;100.00
41684;BME280;27369;52.030;4.586;2023-01-28T11:18:38;17433.44;;;-144.41;100.00
41684;BME280;27369;52.030;4.586;2023-01-28T11:21:06;20700.03;;;-144.41;100.00
41684;BME280;27369;52.030;4.586;2023-01-28T11:23:48;20951.41;;;-144.41;100.00
41684;BME280;27369;52.030;4.586;2023-01-28T11:26:18;19945.94;;;-144.41;100.00
41684;BME280;27369;52.030;4.586;2023-01-28T11:28:44;18438.25;;;-144.41;100.00
41684;BME280;27369;52.030;4.586;2023-01-28T11:31:11;17433.44;;;-144.41;100.00
41684;BME280;27369;52.030;4.586;2023-01-28T11:38:57;19192.03;;;-144.41;100.00
41684;BME280;27369;52.030;4.586;2023-01-28T11:41:35;18438.25;;;-144.41;100.00
41684;BME280;27369;52.030;4.586;2023-01-28T11:44:25;18438.25;;;-144.41;100.00
41684;BME280;27369;52.030;4.586;2023-01-28T11:52:13;20700.03;;;-144.41;100.00
41684;BME280;27369;52.030;4.586;2023-01-28T11:55:21;23466.22;;;-144.41;100.00
41684;BME280;27369;52.030;4.586;2023-01-28T11:58:11;23214.66;;;-144.41;100.00
41684;BME280;27369;52.030;4.586;2023-01-28T12:14:27;31524.47;;;-144.41;100.00
41684;BME280;27369;52.030;4.586;2023-01-28T12:28:12;27996.94;;;-144.41;100.00
41684;BME280;27369;52.030;4.586;2023-01-28T12:31:12;25730.91;;;-144.41;100.00
41684;BME280;27369;52.030;4.586;2023-01-28T12:39:41;24220.97;;;-144.41;100.00
41684;BME280;27369;52.030;4.586;2023-01-28T12:42:17;27241.44;;;-144.41;100.00
41684;BME280;27369;52.030;4.586;2023-01-28T12:44:58;27493.25;;;-144.41;100.00
41684;BME280;27369;52.030;4.586;2023-01-28T12:47:30;27996.94;;;-144.41;100.00
41684;BME280;27369;52.030;4.586;2023-01-28T12:50:03;30264.25;;;-144.41;100.00
41684;BME280;27369;52.030;4.586;2023-01-28T12:52:38;28752.56;;;-144.41;100.00
41684;BME280;27369;52.030;4.586;2023-01-28T12:55:36;27996.94;;;-144.41;100.00
41684;BME280;27369;52.030;4.586;2023-01-28T12:58:04;27241.44;;;-144.41;100.00
41684;BME280;27369;52.030;4.586;2023-01-28T13:00:45;30012.28;;;-144.41;100.00
41684;BME280;27369;52.030;4.586;2023-01-28T13:03:37;32532.91;;;-144.41;100.00
41684;BME280;27369;52.030;4.586;2023-01-28T13:06:12;31020.34;;;-144.41;100.00
41684;BME280;27369;52.030;4.586;2023-01-28T13:08:39;29760.31;;;-144.41;100.00
41684;BME280;27369;52.030;4.586;2023-01-28T13:11:06;29760.31;;;-144.41;100.00
41684;BME280;27369;52.030;4.586;2023-01-28T13:13:38;29760.31;;;-144.41;100.00
41684;BME280;27369;52.030;4.586;2023-01-28T13:16:07;34298.31;;;-144.41;100.00
41684;BME280;27369;52.030;4.586;2023-01-28T13:21:07;38084.03;;;-144.41;100.00
41684;BME280;27369;52.030;4.586;2023-01-28T13:23:39;43390.16;;;-144.41;100.00
41684;BME280;27369;52.030;4.586;2023-01-28T13:26:28;47184.59;;;-144.41;100.00
41684;BME280;27369;52.030;4.586;2023-01-28T13:31:48;46172.41;;;-144.41;100.00
41684;BME280;27369;52.030;4.586;2023-01-28T13:34:34;43643.00;;;-144.41;100.00
41684;BME280;27369;52.030;4.586;2023-01-28T13:37:14;43137.31;;;-144.41;100.00
41684;BME280;27369;52.030;4.586;2023-01-28T13:39:49;43643.00;;;-144.41;100.00
41684;BME280;27369;52.030;4.586;2023-01-28T13:42:27;40862.53;;;-144.41;100.00
41684;BME280;27369;52.030;4.586;2023-01-28T13:44:54;40609.84;;;-144.41;100.00
41684;BME280;27369;52.030;4.586;2023-01-28T13:47:29;39851.94;;;-144.41;100.00
41684;BME280;27369;52.030;4.586;2023-01-28T13:49:58;37831.53;;;-144.41;100.00
41684;BME280;27369;52.030;4.586;2023-01-28T13:52:36;39346.75;;;-144.41;100.00
41684;BME280;27369;52.030;4.586;2023-01-28T14:00:44;40357.19;;;-144.41;100.00
41684;BME280;27369;52.030;4.586;2023-01-28T14:14:19;42884.50;;;-144.41;100.00